Time;durP1;ratioP1;P1;durP2;ratioP2;P2;SDS_P1;SDS_P2;PMS_P1;PMS_P2;Temp;Humidity;BMP_temperature;BMP_pressure;BME280_temperature;BME280_humidity;BME280_pressure;Samples;Min_cycle;Max_cycle;Signal;HPM_P1;HPM_P2
2023/12/01 00:01:18;;;;;;;3.97;2.20;;;16.90;43.50;;;;;;5091856;28;20131;-67
2023/12/01 00:03:44;;;;;;;2.60;2.17;;;17.10;43.20;;;;;;5090686;28;20119;-68
2023/12/01 00:06:10;;;;;;;2.63;1.98;;;17.50;42.70;;;;;;5091727;28;20044;-68
2023/12/01 00:08:35;;;;;;;2.60;2.03;;;18.00;41.90;;;;;;5090574;28;20059;-67
2023/12/01 00:11:01;;;;;;;2.15;1.73;;;18.40;41.00;;;;;;5092023;28;20070;-68
2023/12/01 00:13:26;;;;;;;2.80;2.05;;;18.90;40.10;;;;;;5090922;28;20221;-67
2023/12/01 00:15:53;;;;;;;2.05;1.60;;;19.60;39.00;;;;;;5090896;28;20048;-68
2023/12/01 00:18:18;;;;;;;3.22;2.25;;;20.30;37.90;;;;;;5091721;28;20105;-68
2023/12/01 00:20:44;;;;;;;2.50;1.90;;;21.00;36.80;;;;;;5090689;28;20043;-68
2023/12/01 00:23:10;;;;;;;2.33;1.63;;;21.50;35.90;;;;;;5090604;28;20044;-68
2023/12/01 00:25:35;;;;;;;3.85;2.28;;;22.00;35.10;;;;;;5090572;28;20126;-67
2023/12/01 00:28:01;;;;;;;2.10;1.60;;;22.40;34.50;;;;;;5091856;28;20396;-67
2023/12/01 00:30:29;;;;;;;2.88;2.03;;;22.70;34.00;;;;;;5090680;28;20490;-68
2023/12/01 00:32:55;;;;;;;2.33;1.63;;;23.00;33.60;;;;;;5091778;28;20039;-68
2023/12/01 00:35:21;;;;;;;1.95;1.48;;;23.20;33.30;;;;;;5090689;28;20543;-67
2023/12/01 00:37:47;;;;;;;1.80;1.50;;;23.30;33.00;;;;;;5090417;28;20132;-67
2023/12/01 00:40:12;;;;;;;2.20;1.98;;;23.60;32.80;;;;;;5090375;28;20126;-68
2023/12/01 00:42:38;;;;;;;2.30;1.95;;;23.70;32.60;;;;;;5090522;28;20119;-67
2023/12/01 00:45:05;;;;;;;2.25;1.50;;;23.80;32.40;;;;;;5090338;28;20036;-67
2023/12/01 00:47:31;;;;;;;2.13;1.63;;;23.90;32.40;;;;;;5090398;28;20054;-68
2023/12/01 00:49:57;;;;;;;2.25;1.55;;;23.90;32.30;;;;;;5090440;28;20123;-67
2023/12/01 00:52:22;;;;;;;2.75;1.70;;;24.00;32.30;;;;;;5090388;28;20036;-68
2023/12/01 00:54:48;;;;;;;2.20;1.33;;;24.10;32.20;;;;;;5090418;28;20043;-67
2023/12/01 00:57:14;;;;;;;2.08;1.50;;;24.10;32.00;;;;;;5090564;28;20089;-67
2023/12/01 00:59:40;;;;;;;2.38;1.70;;;24.30;32.00;;;;;;5090413;28;20475;-68
2023/12/01 01:02:05;;;;;;;2.85;2.08;;;24.30;31.80;;;;;;5090266;28;20142;-67
2023/12/01 01:04:31;;;;;;;2.47;1.60;;;24.40;31.70;;;;;;5091444;28;20473;-67
2023/12/01 01:06:57;;;;;;;2.22;1.70;;;24.50;31.60;;;;;;5089799;28;20106;-67
2023/12/01 01:09:22;;;;;;;3.17;2.10;;;24.60;31.50;;;;;;5090210;28;20119;-67
2023/12/01 01:11:51;;;;;;;2.25;1.15;;;24.60;31.50;;;;;;5091260;28;20047;-68
2023/12/01 01:14:17;;;;;;;2.10;1.60;;;24.70;31.50;;;;;;5093052;28;20174;-68
2023/12/01 01:16:42;;;;;;;2.45;1.77;;;24.70;31.50;;;;;;5093739;28;20131;-68
2023/12/01 01:19:08;;;;;;;3.17;2.05;;;24.70;31.50;;;;;;5093815;28;20119;-68
2023/12/01 01:21:33;;;;;;;2.00;1.65;;;24.70;31.50;;;;;;5093863;28;21084;-68
2023/12/01 01:23:59;;;;;;;2.65;1.65;;;24.70;31.50;;;;;;5093911;28;20438;-67
2023/12/01 01:26:25;;;;;;;4.60;2.22;;;24.70;31.50;;;;;;5094877;28;20395;-68
2023/12/01 01:28:51;;;;;;;1.90;1.35;;;24.70;31.40;;;;;;5094902;28;20036;-67
2023/12/01 01:31:16;;;;;;;3.45;1.70;;;24.70;31.30;;;;;;5094783;28;20032;-68
2023/12/01 01:33:42;;;;;;;2.95;1.65;;;24.80;31.40;;;;;;5095223;28;20040;-68
2023/12/01 01:36:08;;;;;;;2.25;1.52;;;24.80;31.30;;;;;;5093176;28;20426;-68
2023/12/01 01:38:34;;;;;;;2.63;1.60;;;24.80;31.30;;;;;;5093350;28;20499;-68
2023/12/01 01:40:59;;;;;;;2.45;1.58;;;24.80;31.30;;;;;;5094498;28;20045;-68
2023/12/01 01:43:28;;;;;;;2.20;1.73;;;24.80;31.30;;;;;;5093359;28;20089;-68
2023/12/01 01:46:04;;;;;;;2.28;1.58;;;24.80;31.20;;;;;;5093320;28;20064;-68
2023/12/01 01:48:32;;;;;;;1.65;1.30;;;24.90;31.30;;;;;;5093360;28;20044;-68
2023/12/01 01:50:58;;;;;;;2.70;2.30;;;24.90;31.20;;;;;;5094591;28;20444;-68
2023/12/01 01:53:24;;;;;;;2.78;2.03;;;24.90;31.20;;;;;;5093241;28;20426;-68
2023/12/01 01:55:51;;;;;;;1.70;1.50;;;24.90;31.20;;;;;;5094383;28;20486;-68
2023/12/01 01:58:16;;;;;;;2.15;1.67;;;24.90;31.20;;;;;;5092846;28;20123;-67
2023/12/01 02:00:49;;;;;;;2.08;1.52;;;24.90;31.20;;;;;;5092924;28;20442;-68
2023/12/01 02:03:16;;;;;;;1.95;1.63;;;24.90;31.10;;;;;;5092765;28;20032;-68
2023/12/01 02:05:41;;;;;;;2.63;1.85;;;24.90;31.10;;;;;;5092711;28;20461;-67
2023/12/01 02:11:00;;;;;;;2.28;1.40;;;24.90;31.30;;;;;;5130464;27;20435;-67
2023/12/01 02:13:26;;;;;;;2.00;1.40;;;24.90;31.10;;;;;;5128913;28;20053;-68
2023/12/01 02:15:53;;;;;;;2.10;1.30;;;24.90;31.10;;;;;;5128940;28;20092;-68
2023/12/01 02:18:22;;;;;;;2.17;1.60;;;25.00;31.10;;;;;;5129108;28;20043;-68
2023/12/01 02:20:49;;;;;;;2.00;1.25;;;25.00;31.10;;;;;;5129166;28;20047;-68
2023/12/01 02:23:14;;;;;;;2.30;1.92;;;25.00;31.00;;;;;;5130115;27;20039;-68
2023/12/01 02:25:40;;;;;;;1.90;1.23;;;25.00;31.00;;;;;;5129228;28;20479;-67
2023/12/01 02:28:06;;;;;;;2.28;1.52;;;25.00;31.10;;;;;;5129999;28;20126;-68
2023/12/01 02:30:31;;;;;;;2.10;1.58;;;25.00;31.10;;;;;;5128506;28;20097;-68
2023/12/01 02:32:57;;;;;;;2.10;1.60;;;25.00;31.00;;;;;;5128855;28;20039;-67
2023/12/01 02:35:29;;;;;;;2.40;1.48;;;25.00;31.00;;;;;;5128645;28;20551;-67
2023/12/01 02:37:55;;;;;;;2.47;1.80;;;25.00;31.10;;;;;;5129880;27;20081;-68
2023/12/01 02:40:22;;;;;;;2.40;1.77;;;25.00;31.10;;;;;;5128892;28;20043;-68
2023/12/01 02:42:50;;;;;;;2.63;1.40;;;25.00;31.10;;;;;;5128681;28;20043;-68
2023/12/01 02:45:17;;;;;;;2.25;1.33;;;24.90;31.10;;;;;;5129678;27;20050;-68
2023/12/01 02:47:47;;;;;;;2.30;1.17;;;25.00;31.10;;;;;;5128353;28;20483;-68
2023/12/01 02:50:13;;;;;;;1.92;1.35;;;25.00;31.10;;;;;;5128153;28;20054;-68
2023/12/01 02:52:39;;;;;;;1.65;1.08;;;25.00;31.10;;;;;;5128495;28;20058;-68
2023/12/01 02:55:05;;;;;;;2.20;1.70;;;25.00;31.10;;;;;;5129545;27;20043;-68
2023/12/01 02:57:34;;;;;;;2.08;1.20;;;25.00;31.20;;;;;;5128712;28;20386;-68
2023/12/01 03:00:00;;;;;;;2.45;1.40;;;24.90;31.10;;;;;;5127897;28;20372;-67
2023/12/01 03:02:28;;;;;;;1.80;1.60;;;24.90;31.20;;;;;;5128334;28;20045;-68
2023/12/01 03:04:54;;;;;;;1.90;1.30;;;24.90;31.20;;;;;;5128187;28;20421;-67
2023/12/01 03:07:20;;;;;;;2.13;1.20;;;24.90;31.20;;;;;;5127996;28;20502;-67
2023/12/01 03:09:46;;;;;;;1.63;1.15;;;24.90;31.20;;;;;;5128908;27;20086;-67
2023/12/01 03:12:11;;;;;;;1.30;0.85;;;24.90;31.10;;;;;;5128105;28;20428;-68
2023/12/01 03:14:37;;;;;;;1.58;1.10;;;25.00;31.20;;;;;;5127739;28;20471;-68
2023/12/01 03:17:03;;;;;;;2.55;1.33;;;24.90;31.10;;;;;;5128094;28;20035;-68
2023/12/01 03:19:29;;;;;;;1.73;1.30;;;25.00;31.10;;;;;;5129303;28;20035;-68
2023/12/01 03:21:55;;;;;;;2.08;1.30;;;25.00;31.10;;;;;;5116277;28;20044;-68
2023/12/01 03:24:20;;;;;;;2.50;1.50;;;25.00;31.10;;;;;;5115176;28;20040;-68
2023/12/01 03:26:46;;;;;;;1.63;1.13;;;25.00;31.10;;;;;;5115293;28;20047;-68
2023/12/01 03:29:11;;;;;;;1.60;1.08;;;25.00;31.10;;;;;;5114084;28;20051;-68
2023/12/01 03:31:37;;;;;;;1.67;1.23;;;24.90;31.10;;;;;;5113971;28;20059;-68
2023/12/01 03:34:06;;;;;;;1.65;1.10;;;24.90;31.10;;;;;;5115072;28;20035;-67
2023/12/01 03:36:31;;;;;;;1.30;0.90;;;24.90;31.20;;;;;;5113894;28;20043;-68
2023/12/01 03:38:57;;;;;;;2.10;1.25;;;24.90;31.20;;;;;;5114987;28;20085;-68
2023/12/01 03:41:23;;;;;;;1.85;1.10;;;24.90;31.20;;;;;;5113784;28;20058;-68
2023/12/01 03:43:48;;;;;;;2.33;1.15;;;24.80;31.10;;;;;;5113582;28;20075;-67
2023/12/01 03:46:14;;;;;;;1.40;1.23;;;24.80;31.10;;;;;;5113646;28;20043;-67
2023/12/01 03:48:40;;;;;;;2.20;1.02;;;24.80;31.20;;;;;;5114860;28;20410;-68
2023/12/01 03:51:09;;;;;;;2.28;1.40;;;24.80;31.20;;;;;;5113653;28;20043;-67
2023/12/01 03:53:36;;;;;;;1.40;1.02;;;24.80;31.20;;;;;;5114949;28;20123;-67
2023/12/01 03:56:02;;;;;;;1.88;1.30;;;24.80;31.20;;;;;;5113321;28;20071;-67
2023/12/01 03:58:28;;;;;;;1.85;1.30;;;24.80;31.30;;;;;;5113321;28;20047;-68
2023/12/01 04:00:54;;;;;;;1.50;1.00;;;24.70;31.30;;;;;;5113314;28;20050;-68
2023/12/01 04:03:20;;;;;;;1.55;0.98;;;24.70;31.20;;;;;;5114552;28;20027;-68
2023/12/01 04:05:47;;;;;;;1.85;1.00;;;24.80;31.30;;;;;;5113026;28;20483;-67
2023/12/01 04:08:13;;;;;;;1.75;1.05;;;24.70;31.20;;;;;;5113356;28;20063;-67
2023/12/01 04:10:38;;;;;;;1.88;1.17;;;24.80;31.30;;;;;;5114100;28;20491;-67
2023/12/01 04:13:07;;;;;;;1.17;0.85;;;24.80;31.30;;;;;;5096262;28;20067;-68
2023/12/01 04:15:34;;;;;;;1.60;1.00;;;24.80;31.30;;;;;;5112961;28;20111;-68
2023/12/01 04:18:07;;;;;;;1.67;1.05;;;24.70;31.20;;;;;;5113108;28;20090;-68
2023/12/01 04:20:36;;;;;;;1.48;1.20;;;24.70;31.20;;;;;;5112922;28;20044;-68
2023/12/01 04:23:03;;;;;;;2.25;1.13;;;24.80;31.40;;;;;;5113062;28;20479;-68
2023/12/01 04:25:29;;;;;;;1.80;1.23;;;24.70;31.30;;;;;;5112810;28;20118;-68
2023/12/01 04:27:56;;;;;;;1.50;0.70;;;24.70;31.30;;;;;;5114058;28;20106;-67
2023/12/01 04:30:23;;;;;;;2.30;1.10;;;24.70;31.30;;;;;;5113861;28;20402;-68
2023/12/01 04:32:52;;;;;;;1.83;1.10;;;24.70;31.20;;;;;;5111626;28;20047;-67
2023/12/01 04:35:19;;;;;;;1.40;0.95;;;24.70;31.20;;;;;;5114167;28;20038;-67
2023/12/01 04:37:45;;;;;;;1.65;1.10;;;24.70;31.30;;;;;;5114116;28;20039;-67
2023/12/01 04:40:18;;;;;;;1.40;0.77;;;24.70;31.30;;;;;;5112681;28;20131;-67
2023/12/01 04:42:45;;;;;;;1.40;0.70;;;24.70;31.20;;;;;;5113631;28;20044;-67
2023/12/01 04:45:11;;;;;;;1.02;0.63;;;24.70;31.20;;;;;;5112713;28;20043;-67
2023/12/01 04:47:40;;;;;;;1.20;0.70;;;24.60;31.20;;;;;;5112321;28;20044;-67
2023/12/01 04:50:12;;;;;;;1.23;0.82;;;24.70;31.20;;;;;;5112482;28;20071;-68
2023/12/01 04:55:20;;;;;;;1.40;0.80;;;24.70;31.20;;;;;;5130354;27;20382;-67
2023/12/01 04:57:47;;;;;;;1.75;1.08;;;24.60;31.10;;;;;;5128907;28;20138;-67
2023/12/01 05:00:19;;;;;;;1.52;1.00;;;24.60;31.20;;;;;;5129178;28;20039;-67
2023/12/01 05:05:28;;;;;;;1.27;0.70;;;24.60;31.20;;;;;;5130388;27;20378;-68
2023/12/01 05:07:57;;;;;;;1.25;0.55;;;24.60;31.20;;;;;;5128945;28;20043;-68
2023/12/01 05:10:25;;;;;;;2.08;0.70;;;24.70;31.20;;;;;;5128938;28;20510;-68
2023/12/01 05:12:54;;;;;;;1.13;0.75;;;24.70;31.10;;;;;;5128844;28;20478;-67
2023/12/01 05:15:24;;;;;;;1.40;0.77;;;24.80;31.00;;;;;;5128921;28;20122;-68
2023/12/01 05:17:51;;;;;;;1.15;0.60;;;24.80;30.90;;;;;;5128792;28;20564;-68
2023/12/01 05:20:18;;;;;;;0.80;0.50;;;24.90;30.90;;;;;;5128957;28;20448;-68
2023/12/01 05:25:32;;;;;;;1.30;0.90;;;24.90;30.80;;;;;;5089424;27;20382;-68
2023/12/01 05:27:59;;;;;;;0.88;0.47;;;25.00;30.70;;;;;;5088481;28;20109;-68
2023/12/01 05:30:27;;;;;;;1.60;0.73;;;25.00;30.60;;;;;;5089367;28;20139;-67
2023/12/01 05:32:54;;;;;;;1.30;0.90;;;25.00;30.60;;;;;;5088402;28;20055;-67
2023/12/01 05:35:21;;;;;;;3.03;0.80;;;25.00;30.70;;;;;;5088106;28;20089;-68
2023/12/01 05:37:49;;;;;;;1.10;0.60;;;25.00;30.70;;;;;;5088151;28;20446;-67
2023/12/01 05:40:20;;;;;;;1.40;0.70;;;24.90;30.80;;;;;;5089142;28;20365;-67
2023/12/01 05:42:47;;;;;;;1.45;0.80;;;24.80;30.80;;;;;;5089416;28;20132;-66
2023/12/01 05:45:14;;;;;;;1.35;0.60;;;24.80;30.80;;;;;;5087879;28;20044;-67
2023/12/01 05:47:42;;;;;;;0.90;0.80;;;24.70;30.90;;;;;;5087717;28;20501;-67
2023/12/01 05:50:12;;;;;;;1.13;0.70;;;24.70;31.00;;;;;;5087563;28;20041;-67
2023/12/01 05:52:39;;;;;;;1.10;0.55;;;24.60;31.00;;;;;;5088905;28;20430;-67
2023/12/01 05:55:10;;;;;;;0.90;0.50;;;24.60;31.00;;;;;;5087563;28;20067;-67
2023/12/01 05:57:36;;;;;;;1.55;0.80;;;24.50;31.00;;;;;;5087763;28;20074;-67
2023/12/01 06:00:02;;;;;;;1.73;0.88;;;24.50;31.10;;;;;;5087621;28;20109;-67
2023/12/01 06:02:28;;;;;;;0.90;0.50;;;24.50;31.10;;;;;;5087744;28;20392;-68
2023/12/01 06:04:57;;;;;;;1.27;0.77;;;24.40;31.10;;;;;;5087243;28;20048;-67
2023/12/01 06:07:23;;;;;;;1.40;0.90;;;24.40;31.20;;;;;;5087675;28;20384;-68
2023/12/01 06:09:49;;;;;;;1.50;0.60;;;24.40;31.20;;;;;;5087611;28;20094;-67
2023/12/01 06:12:14;;;;;;;1.63;0.70;;;24.40;31.10;;;;;;5087323;28;20499;-67
2023/12/01 06:14:40;;;;;;;1.10;0.68;;;24.40;31.20;;;;;;5087580;28;20036;-67
2023/12/01 06:17:07;;;;;;;1.23;0.68;;;24.40;31.20;;;;;;5088381;28;20036;-68
2023/12/01 06:19:32;;;;;;;1.27;0.50;;;24.40;31.10;;;;;;5088394;28;20040;-68
2023/12/01 06:21:58;;;;;;;1.50;0.73;;;24.40;31.10;;;;;;5087076;28;20051;-68
2023/12/01 06:24:25;;;;;;;1.35;1.02;;;24.50;31.10;;;;;;5086777;28;20055;-68
2023/12/01 06:26:52;;;;;;;1.73;0.70;;;24.50;31.00;;;;;;5086929;28;20048;-68
2023/12/01 06:29:18;;;;;;;1.10;0.75;;;24.50;31.00;;;;;;5087289;28;20041;-67
2023/12/01 06:31:44;;;;;;;0.88;0.52;;;24.50;30.90;;;;;;5088099;28;20397;-67
2023/12/01 06:34:10;;;;;;;0.95;0.50;;;24.50;30.90;;;;;;5086841;28;20044;-67
2023/12/01 06:36:35;;;;;;;1.80;1.15;;;24.50;30.90;;;;;;5074133;28;20055;-67
2023/12/01 06:39:10;;;;;;;1.20;0.65;;;24.50;30.80;;;;;;5073398;28;20194;-67
2023/12/01 06:41:37;;;;;;;1.48;0.60;;;24.60;30.80;;;;;;5073456;28;20045;-67
2023/12/01 06:44:04;;;;;;;1.50;0.60;;;24.60;30.70;;;;;;5073558;28;20388;-67
2023/12/01 06:46:29;;;;;;;0.90;0.60;;;24.60;30.70;;;;;;5073494;28;20446;-67
2023/12/01 06:48:55;;;;;;;1.23;0.80;;;24.60;30.70;;;;;;5074373;28;20750;-68
2023/12/01 06:51:21;;;;;;;1.85;0.80;;;24.60;30.70;;;;;;5073028;28;20048;-66
2023/12/01 06:53:46;;;;;;;1.42;0.60;;;24.60;30.70;;;;;;5074392;28;20114;-67
2023/12/01 06:56:12;;;;;;;1.08;0.60;;;24.60;30.70;;;;;;5071906;28;20044;-67
2023/12/01 06:58:37;;;;;;;2.25;1.63;;;24.60;30.70;;;;;;5071076;28;20068;-66
2023/12/01 07:01:03;;;;;;;3.67;2.50;;;24.50;31.00;;;;;;5069874;28;20115;-66
2023/12/01 07:03:29;;;;;;;3.25;2.28;;;24.30;32.00;;;;;;5069833;28;20377;-68
2023/12/01 07:05:55;;;;;;;3.72;2.03;;;23.90;32.70;;;;;;5069536;28;20568;-67
2023/12/01 07:08:21;;;;;;;3.22;2.65;;;23.70;33.50;;;;;;5070232;28;20131;-67
2023/12/01 07:10:46;;;;;;;3.67;2.70;;;23.60;33.90;;;;;;5069914;28;20484;-65
2023/12/01 07:13:12;;;;;;;3.70;2.60;;;23.60;34.10;;;;;;5054531;28;20098;-66
2023/12/01 07:15:38;;;;;;;3.30;2.80;;;23.70;34.00;;;;;;5048473;28;20543;-67
2023/12/01 07:18:04;;;;;;;4.72;2.85;;;23.60;33.80;;;;;;5055388;28;20523;-67
2023/12/01 07:20:33;;;;;;;3.58;3.08;;;23.70;33.80;;;;;;5061545;28;20040;-68
2023/12/01 07:22:59;;;;;;;3.10;2.75;;;23.70;33.70;;;;;;5063282;28;20033;-70
2023/12/01 07:25:25;;;;;;;11.15;9.20;;;23.70;33.50;;;;;;5062967;28;20044;-70
2023/12/01 07:30:32;;;;;;;9.10;6.88;;;23.60;29.80;;;;;;5160444;27;20784;-68
2023/12/01 07:33:01;;;;;;;8.45;6.80;;;23.60;30.00;;;;;;5124656;27;20158;-68
2023/12/01 07:35:27;;;;;;;7.50;5.60;;;23.60;30.20;;;;;;5126339;27;20490;-69
2023/12/01 07:37:53;;;;;;;6.40;5.68;;;23.60;30.50;;;;;;5139463;27;20148;-69
2023/12/01 07:40:19;;;;;;;5.22;4.65;;;23.70;30.70;;;;;;5119748;27;20050;-69
2023/12/01 07:42:46;;;;;;;11.20;7.45;;;23.70;30.90;;;;;;5116768;27;20050;-69
2023/12/01 07:45:17;;;;;;;10.95;8.30;;;23.70;30.30;;;;;;5112720;27;20053;-69
2023/12/01 07:47:43;;;;;;;9.75;7.10;;;23.60;29.70;;;;;;5129118;27;20083;-68
2023/12/01 07:50:09;;;;;;;10.95;6.82;;;23.50;29.60;;;;;;5110693;27;20071;-69
2023/12/01 07:52:35;;;;;;;7.90;6.03;;;23.40;29.80;;;;;;5109190;27;20054;-67
2023/12/01 07:55:00;;;;;;;7.13;4.60;;;23.50;30.00;;;;;;5135501;27;20114;-68
2023/12/01 07:57:26;;;;;;;8.30;5.13;;;23.70;30.00;;;;;;5115740;27;20463;-67
2023/12/01 07:59:52;;;;;;;6.97;4.68;;;24.10;30.00;;;;;;5116068;27;20177;-67
2023/12/01 08:02:17;;;;;;;6.35;4.38;;;24.40;29.90;;;;;;5110445;27;20053;-67
2023/12/01 08:04:43;;;;;;;6.03;3.85;;;24.70;29.60;;;;;;5114072;27;20047;-67
2023/12/01 08:07:08;;;;;;;5.53;3.38;;;25.10;29.30;;;;;;5110704;27;20036;-67
2023/12/01 08:09:34;;;;;;;6.80;4.35;;;25.50;29.00;;;;;;5112352;27;20055;-68
2023/12/01 08:12:01;;;;;;;7.68;5.60;;;25.70;28.80;;;;;;5129997;27;20401;-67
2023/12/01 08:14:27;;;;;;;7.65;5.50;;;25.60;28.70;;;;;;5113481;27;20046;-67
2023/12/01 08:16:53;;;;;;;5.75;5.00;;;25.20;28.80;;;;;;5097587;27;20039;-67
2023/12/01 08:19:18;;;;;;;5.35;4.45;;;24.70;29.30;;;;;;5132598;27;20042;-68
2023/12/01 08:21:45;;;;;;;7.40;4.80;;;24.50;29.90;;;;;;5129092;27;20045;-67
2023/12/01 08:24:11;;;;;;;7.53;4.35;;;24.20;30.20;;;;;;5134032;27;20035;-68
2023/12/01 08:26:37;;;;;;;4.65;4.25;;;24.10;30.70;;;;;;5129426;27;20432;-68
2023/12/01 08:29:03;;;;;;;5.10;3.78;;;23.90;31.10;;;;;;5108783;27;20529;-68
2023/12/01 08:31:30;;;;;;;6.40;4.95;;;23.70;31.40;;;;;;5109354;27;20036;-70
2023/12/01 08:33:56;;;;;;;7.18;4.60;;;23.60;31.60;;;;;;5112775;27;20554;-68
2023/12/01 08:36:22;;;;;;;7.75;5.10;;;23.40;31.80;;;;;;5112694;28;20039;-71
2023/12/01 08:38:48;;;;;;;7.88;5.30;;;23.20;32.20;;;;;;5108886;27;20471;-72
2023/12/01 08:41:13;;;;;;;8.32;5.35;;;23.00;32.50;;;;;;5106255;28;20047;-69
2023/12/01 08:43:39;;;;;;;7.65;5.78;;;22.70;32.70;;;;;;5111549;27;20620;-68
2023/12/01 08:46:05;;;;;;;7.90;4.93;;;22.40;33.20;;;;;;5097145;28;20047;-67
2023/12/01 08:48:31;;;;;;;7.03;4.43;;;22.00;33.80;;;;;;5108400;27;20036;-68
2023/12/01 08:50:56;;;;;;;5.40;4.38;;;21.80;34.30;;;;;;5094003;27;20234;-65
2023/12/01 08:53:22;;;;;;;6.22;5.20;;;21.60;34.60;;;;;;5089227;28;20039;-65
2023/12/01 08:55:48;;;;;;;5.72;4.70;;;21.40;34.90;;;;;;5090807;28;20461;-66
2023/12/01 08:58:14;;;;;;;6.60;5.07;;;21.20;35.20;;;;;;5096423;28;20580;-64
2023/12/01 09:00:41;;;;;;;6.50;4.32;;;21.10;35.30;;;;;;5107561;27;20067;-64
2023/12/01 09:03:06;;;;;;;4.60;3.97;;;21.00;35.50;;;;;;5091416;28;20119;-66
2023/12/01 09:05:32;;;;;;;5.03;4.53;;;20.80;35.50;;;;;;5096634;28;20040;-64
2023/12/01 09:07:59;;;;;;;5.80;3.92;;;20.70;35.70;;;;;;5126438;27;20127;-64
2023/12/01 09:10:26;;;;;;;4.65;3.83;;;20.60;35.80;;;;;;5091789;28;20036;-64
2023/12/01 09:12:52;;;;;;;4.57;3.70;;;20.50;36.00;;;;;;5091226;28;20086;-63
2023/12/01 09:15:18;;;;;;;4.63;3.45;;;20.40;36.10;;;;;;5092472;28;20312;-65
2023/12/01 09:17:43;;;;;;;5.72;4.30;;;20.30;36.10;;;;;;5096370;28;20122;-66
2023/12/01 09:20:10;;;;;;;4.05;3.35;;;20.20;36.20;;;;;;5090683;27;20527;-65
2023/12/01 09:22:36;;;;;;;5.53;3.35;;;20.10;36.20;;;;;;5091148;28;20056;-65
2023/12/01 09:25:03;;;;;;;5.78;3.95;;;20.00;36.30;;;;;;5094696;28;20466;-65
2023/12/01 09:27:29;;;;;;;4.38;3.95;;;20.00;36.40;;;;;;5087092;28;20274;-65
2023/12/01 09:29:54;;;;;;;5.57;3.92;;;19.90;36.50;;;;;;5107587;27;20679;-65
2023/12/01 09:32:20;;;;;;;4.45;3.45;;;19.80;36.50;;;;;;5093417;28;20248;-66
2023/12/01 09:34:46;;;;;;;4.50;3.55;;;19.80;36.60;;;;;;5094816;28;20049;-65
2023/12/01 09:37:12;;;;;;;4.13;3.28;;;19.70;36.70;;;;;;5108438;27;20040;-66
2023/12/01 09:39:38;;;;;;;3.55;3.25;;;19.70;36.90;;;;;;5093154;28;20084;-65
2023/12/01 09:42:06;;;;;;;4.28;3.88;;;19.60;36.90;;;;;;5093419;28;20559;-66
2023/12/01 09:44:32;;;;;;;4.40;3.10;;;19.50;37.00;;;;;;5109726;27;20052;-65
2023/12/01 09:47:01;;;;;;;4.13;3.05;;;19.50;37.80;;;;;;5095519;28;20048;-65
2023/12/01 09:49:33;;;;;;;3.80;3.33;;;19.40;37.10;;;;;;5093723;28;20071;-67
2023/12/01 09:52:00;;;;;;;3.30;2.85;;;19.40;37.30;;;;;;5092065;27;20065;-67
2023/12/01 09:54:26;;;;;;;4.75;3.28;;;19.40;37.20;;;;;;5089331;28;20043;-67
2023/12/01 09:56:52;;;;;;;4.63;3.03;;;19.40;37.20;;;;;;5095063;28;20355;-67
2023/12/01 09:59:19;;;;;;;2.78;2.47;;;19.50;37.00;;;;;;5096871;27;20052;-67
2023/12/01 10:01:47;;;;;;;4.25;3.63;;;19.60;36.80;;;;;;5096843;28;20040;-67
2023/12/01 10:04:13;;;;;;;3.10;2.58;;;19.80;36.50;;;;;;5091548;28;20040;-66
2023/12/01 10:06:39;;;;;;;4.07;2.60;;;19.90;36.20;;;;;;5095063;28;20050;-67
2023/12/01 10:09:09;;;;;;;3.50;2.95;;;20.00;36.00;;;;;;5096875;28;20051;-66
2023/12/01 10:11:36;;;;;;;3.40;2.63;;;20.10;35.80;;;;;;5088917;28;20407;-65
2023/12/01 10:14:08;;;;;;;4.97;2.60;;;20.10;35.50;;;;;;5093471;27;20043;-65
2023/12/01 10:16:35;;;;;;;5.05;2.65;;;20.20;35.50;;;;;;5098640;28;20056;-64
2023/12/01 10:19:04;;;;;;;3.72;2.90;;;20.20;36.10;;;;;;5088975;27;20048;-65
2023/12/01 10:24:24;;;;;;;2.75;2.28;;;20.10;35.30;;;;;;5113671;27;20435;-65
2023/12/01 10:26:52;;;;;;;4.00;2.80;;;20.00;35.30;;;;;;5126929;27;20112;-64
2023/12/01 10:32:11;;;;;;;3.10;2.13;;;19.90;35.40;;;;;;5068378;28;20448;-65
2023/12/01 10:34:37;;;;;;;3.90;2.63;;;19.80;35.60;;;;;;5054522;28;20053;-65
2023/12/01 10:37:03;;;;;;;3.28;2.38;;;19.70;35.70;;;;;;5048480;28;20531;-65
2023/12/01 10:39:30;;;;;;;2.83;2.38;;;19.60;35.80;;;;;;5055114;28;20051;-65
2023/12/01 10:41:57;;;;;;;2.53;2.08;;;19.50;35.80;;;;;;5079308;28;20044;-64
2023/12/01 10:44:26;;;;;;;2.50;2.08;;;19.50;35.90;;;;;;5054695;28;20393;-65
2023/12/01 10:46:53;;;;;;;2.50;2.00;;;19.50;35.80;;;;;;5074029;28;20463;-66
2023/12/01 10:49:20;;;;;;;2.72;2.25;;;19.50;35.80;;;;;;5053395;28;20044;-64
2023/12/01 10:51:52;;;;;;;2.78;2.00;;;19.50;35.70;;;;;;5052837;28;20060;-65
2023/12/01 10:54:23;;;;;;;3.38;1.92;;;19.50;35.60;;;;;;5059097;28;20036;-66
2023/12/01 10:57:09;;;;;;;;;;;19.60;36.20;;;;;;5075816;28;20040;-65
2023/12/01 10:59:37;;;;;;;2.35;1.95;;;19.70;35.10;;;;;;5050491;28;20434;-62
2023/12/01 11:02:05;;;;;;;2.97;2.25;;;19.90;35.00;;;;;;5057938;28;20036;-63
2023/12/01 11:04:33;;;;;;;6.90;2.35;;;19.90;35.30;;;;;;5062431;28;20037;-65
2023/12/01 11:13:03;;;;;;;4.43;1.90;;;20.00;35.40;;;;;;5054791;27;20991;-63
2023/12/01 11:15:33;;;;;;;4.35;2.20;;;20.00;35.40;;;;;;5031485;28;20041;-64
2023/12/01 11:17:59;;;;;;;4.25;2.25;;;20.10;35.30;;;;;;5039187;28;20030;-63
2023/12/01 11:20:48;;;;;;;3.05;1.95;;;20.30;35.60;;;;;;5035499;28;20049;-63
2023/12/01 11:26:05;;;;;;;3.58;1.17;;;20.70;35.40;;;;;;5076159;28;20486;-63
2023/12/01 11:28:42;;;;;;;2.25;1.30;;;22.00;33.40;;;;;;5067385;28;20052;-64
2023/12/01 11:33:57;;;;;;;3.03;2.70;;;22.80;32.30;;;;;;5102093;27;20174;-64
2023/12/01 11:41:50;;;;;;;2.80;1.77;;;24.00;29.20;;;;;;5062670;27;20198;-63
2023/12/01 11:44:18;;;;;;;3.03;1.85;;;24.40;28.50;;;;;;5049077;28;20045;-64
2023/12/01 11:46:46;;;;;;;8.57;2.22;;;24.40;28.40;;;;;;5061491;28;20045;-64
2023/12/01 11:49:14;;;;;;;4.57;1.80;;;24.50;28.50;;;;;;5028178;28;20080;-63
2023/12/01 11:51:43;;;;;;;4.05;0.90;;;24.60;28.40;;;;;;5029333;28;20540;-64
2023/12/01 11:54:11;;;;;;;4.13;1.63;;;24.70;28.50;;;;;;5041664;28;20459;-63
2023/12/01 11:56:38;;;;;;;2.53;1.70;;;24.70;28.30;;;;;;5039605;28;20050;-64
2023/12/01 11:59:08;;;;;;;2.97;1.40;;;24.80;28.20;;;;;;5048239;28;20065;-65
2023/12/01 12:01:34;;;;;;;15.35;2.35;;;24.90;28.20;;;;;;5041314;28;20055;-65
2023/12/01 12:04:00;;;;;;;2.28;1.00;;;25.10;28.30;;;;;;5040510;28;20037;-65
2023/12/01 12:06:26;;;;;;;6.15;1.30;;;25.30;28.40;;;;;;5037799;28;20504;-63
2023/12/01 12:08:52;;;;;;;3.10;0.68;;;25.40;28.20;;;;;;5062708;28;20065;-64
2023/12/01 12:11:19;;;;;;;3.05;0.98;;;25.50;28.20;;;;;;5037670;28;20048;-68
2023/12/01 12:13:52;;;;;;;9.10;1.30;;;25.60;28.00;;;;;;5041346;28;20038;-68
2023/12/01 12:16:20;;;;;;;2.63;1.10;;;25.70;28.00;;;;;;5044245;28;20052;-67
2023/12/01 12:18:48;;;;;;;2.05;1.02;;;25.80;28.00;;;;;;5042509;28;20052;-69
2023/12/01 12:21:14;;;;;;;5.20;1.00;;;25.70;27.90;;;;;;5027820;28;20068;-69
2023/12/01 12:23:40;;;;;;;1.88;0.80;;;25.50;28.10;;;;;;5056238;28;20045;-68
2023/12/01 12:26:23;;;;;;;1.73;0.75;;;25.40;28.40;;;;;;5065412;28;20192;-67
2023/12/01 12:28:56;;;;;;;1.15;0.68;;;25.20;28.50;;;;;;5058807;28;20041;-68
2023/12/01 12:31:25;;;;;;;5.32;0.90;;;25.10;28.70;;;;;;5030163;28;20054;-64
2023/12/01 12:33:52;;;;;;;1.05;0.40;;;25.00;28.90;;;;;;5049669;28;20116;-66
2023/12/01 12:36:19;;;;;;;1.15;0.63;;;25.00;29.00;;;;;;5048388;28;20067;-64
2023/12/01 12:38:49;;;;;;;3.38;0.65;;;25.00;29.10;;;;;;5052018;28;20032;-66
2023/12/01 12:41:30;;;;;;;1.60;0.30;;;25.10;29.70;;;;;;5067096;28;20499;-64
2023/12/01 12:43:59;;;;;;;2.55;1.20;;;25.00;29.30;;;;;;5064379;28;20056;-69
2023/12/01 12:46:27;;;;;;;3.60;1.10;;;25.00;28.80;;;;;;5046206;28;20079;-64
2023/12/01 12:49:03;;;;;;;2.50;0.80;;;24.70;28.80;;;;;;5063737;28;20237;-64
2023/12/01 12:51:30;;;;;;;2.42;0.90;;;24.50;29.00;;;;;;5045513;28;20044;-67
2023/12/01 12:53:56;;;;;;;4.25;1.02;;;24.30;29.20;;;;;;5052995;28;20072;-64
2023/12/01 12:56:23;;;;;;;2.13;0.98;;;24.20;29.30;;;;;;5026704;28;20025;-64
2023/12/01 12:58:54;;;;;;;1.50;0.60;;;24.20;29.50;;;;;;5038774;28;20048;-65
2023/12/01 13:01:19;;;;;;;;;;;24.30;29.70;;;;;;5035909;28;20094;-65
2023/12/01 13:03:45;;;;;;;1.80;0.80;;;24.40;29.70;;;;;;5024979;28;20292;-64
2023/12/01 13:06:12;;;;;;;1.00;0.40;;;24.60;29.40;;;;;;5035070;28;20308;-65
2023/12/01 13:08:39;;;;;;;1.40;0.50;;;24.80;29.40;;;;;;5028523;28;20041;-63
2023/12/01 13:11:06;;;;;;;1.05;0.40;;;25.10;29.30;;;;;;5024940;28;20057;-67
2023/12/01 13:13:33;;;;;;;2.00;0.38;;;25.30;29.10;;;;;;5045026;28;20496;-63
2023/12/01 13:15:59;;;;;;;1.77;0.40;;;25.50;29.00;;;;;;5031590;28;20061;-64
2023/12/01 13:18:25;;;;;;;1.10;0.30;;;25.50;28.90;;;;;;5025879;28;20138;-67
2023/12/01 13:20:54;;;;;;;2.30;0.47;;;25.50;28.90;;;;;;5025572;28;20529;-65
2023/12/01 13:23:20;;;;;;;2.05;0.40;;;25.50;29.00;;;;;;5035361;28;20056;-68